Time;durP1;ratioP1;P1;durP2;ratioP2;P2;SDS_P1;SDS_P2;PMS_P1;PMS_P2;Temp;Humidity;BMP_temperature;BMP_pressure;BME280_temperature;BME280_humidity;BME280_pressure;Samples;Min_cycle;Max_cycle;Signal;HPM_P1;HPM_P2
2024/04/15 00:01:51;;;;;;;6.67;4.30;;;;;;;21.13;57.58;97211.50;5415731;26;20235;-71
2024/04/15 00:04:17;;;;;;;5.33;3.50;;;;;;;20.95;58.40;97206.16;5446102;26;20457;-70
2024/04/15 00:06:42;;;;;;;7.77;3.80;;;;;;;20.97;58.85;97202.22;5445827;26;20724;-71
2024/04/15 00:09:08;;;;;;;8.70;3.70;;;;;;;21.00;58.35;97208.97;5446685;26;20235;-71
2024/04/15 00:11:33;;;;;;;3.73;3.30;;;;;;;21.08;58.35;97202.53;5447586;26;20243;-70
2024/04/15 00:13:59;;;;;;;4.80;3.17;;;;;;;21.10;57.82;97211.13;5446551;26;20281;-73
2024/04/15 00:16:24;;;;;;;12.53;3.57;;;;;;;21.11;57.88;97229.56;5446357;26;20368;-70
2024/04/15 00:18:50;;;;;;;6.10;3.87;;;;;;;21.00;57.78;97219.63;5446826;26;20282;-70
2024/04/15 00:21:15;;;;;;;4.33;3.20;;;;;;;21.03;58.01;97221.84;5447126;26;20228;-73
2024/04/15 00:23:40;;;;;;;9.77;3.80;;;;;;;20.95;58.07;97203.50;5447374;26;20274;-71
2024/04/15 00:26:06;;;;;;;6.80;4.30;;;;;;;20.98;58.19;97238.50;5460012;26;20618;-71
2024/04/15 00:28:31;;;;;;;6.93;3.03;;;;;;;20.98;56.55;97232.38;5446624;26;20327;-72
2024/04/15 00:30:57;;;;;;;5.37;3.10;;;;;;;20.94;55.60;97210.66;5446695;26;20239;-71
2024/04/15 00:33:22;;;;;;;3.83;2.60;;;;;;;21.02;53.47;97205.06;5409779;26;20716;-75
2024/04/15 00:35:48;;;;;;;5.03;3.57;;;;;;;21.09;54.31;97196.19;5456891;26;20783;-73
2024/04/15 00:38:14;;;;;;;3.53;3.20;;;;;;;21.12;54.91;97217.06;5446181;26;20243;-72
2024/04/15 00:40:40;;;;;;;3.20;2.90;;;;;;;21.17;53.83;97187.91;5446931;26;20283;-73
2024/04/15 00:43:06;;;;;;;9.00;2.60;;;;;;;21.18;51.72;97169.03;5461448;26;20453;-70
2024/04/15 00:45:32;;;;;;;4.07;2.80;;;;;;;21.22;52.37;97182.72;5417487;26;20613;-72
2024/04/15 00:47:58;;;;;;;3.33;2.90;;;;;;;21.27;51.94;97176.72;5460552;26;20236;-72
2024/04/15 00:50:24;;;;;;;3.30;2.20;;;;;;;21.28;51.27;97173.84;5447223;26;20501;-72
2024/04/15 00:52:50;;;;;;;2.90;2.63;;;;;;;21.28;50.43;97159.69;5445469;26;20854;-71
2024/04/15 00:55:15;;;;;;;2.60;2.40;;;;;;;21.28;49.94;97173.84;5445149;26;20457;-71
2024/04/15 00:57:43;;;;;;;3.50;2.43;;;;;;;21.31;49.89;97178.72;5446505;26;20242;-72
2024/04/15 01:00:11;;;;;;;2.17;1.97;;;;;;;21.36;49.34;97183.38;5441371;26;20266;-73
2024/04/15 01:02:38;;;;;;;5.23;2.43;;;;;;;21.38;48.89;97167.19;5446550;26;20581;-72
2024/04/15 01:05:04;;;;;;;2.53;2.33;;;;;;;21.40;48.66;97155.25;5446581;26;21052;-70
2024/04/15 01:07:30;;;;;;;4.17;2.10;;;;;;;21.41;48.66;97162.22;5459239;26;20491;-71
2024/04/15 01:09:56;;;;;;;4.17;2.30;;;;;;;21.45;48.46;97159.91;5444802;26;20227;-72
2024/04/15 01:12:22;;;;;;;3.77;2.40;;;;;;;21.45;48.47;97154.59;5432240;26;21021;-73
2024/04/15 01:14:47;;;;;;;3.80;2.27;;;;;;;21.46;48.15;97151.72;5414682;26;20295;-71
2024/04/15 01:17:13;;;;;;;3.43;2.10;;;;;;;21.48;48.30;97148.81;5445126;26;20779;-69
2024/04/15 01:19:38;;;;;;;5.40;2.20;;;;;;;21.48;48.13;97143.47;5446466;26;20345;-70
2024/04/15 01:22:05;;;;;;;2.90;2.20;;;;;;;21.51;48.22;97135.03;5446212;26;20242;-72
2024/04/15 01:24:31;;;;;;;3.60;1.97;;;;;;;21.46;47.90;97141.06;5445053;26;20236;-69
2024/04/15 01:26:56;;;;;;;7.03;2.50;;;;;;;21.41;48.19;97142.75;5445891;26;20519;-72
2024/04/15 01:29:23;;;;;;;2.40;2.20;;;;;;;21.37;48.56;97139.69;5445140;26;20286;-71
2024/04/15 01:31:49;;;;;;;3.53;2.10;;;;;;;21.36;48.38;97121.28;5444659;26;20329;-72
2024/04/15 01:34:15;;;;;;;15.73;2.53;;;;;;;21.31;48.63;97129.94;5445872;26;20966;-71
2024/04/15 01:36:40;;;;;;;3.00;2.23;;;;;;;21.26;48.71;97119.13;5443881;26;20293;-71
2024/04/15 01:39:05;;;;;;;3.10;2.13;;;;;;;21.24;48.59;97123.88;5445316;26;20241;-71
2024/04/15 01:41:31;;;;;;;2.90;2.10;;;;;;;21.16;48.86;97127.66;5440540;26;20875;-72
2024/04/15 01:43:57;;;;;;;2.30;1.80;;;;;;;21.11;48.57;97119.53;5414533;26;20991;-71
2024/04/15 01:46:22;;;;;;;3.10;1.93;;;;;;;21.15;48.50;97121.50;5443076;26;20340;-71
2024/04/15 01:48:48;;;;;;;2.20;1.97;;;;;;;21.10;47.97;97124.03;5413853;26;20235;-71
2024/04/15 01:51:13;;;;;;;5.43;2.00;;;;;;;21.05;47.92;97131.03;5445805;26;20303;-72
2024/04/15 01:53:38;;;;;;;2.33;2.13;;;;;;;21.03;47.70;97131.28;5445962;26;20623;-70
2024/04/15 01:56:05;;;;;;;3.10;2.00;;;;;;;20.96;47.76;97126.03;5442894;26;20286;-72
2024/04/15 01:58:31;;;;;;;5.87;2.20;;;;;;;20.94;47.49;97117.44;5444100;26;20232;-70
2024/04/15 02:01:05;;;;;;;3.00;2.37;;;;;;;20.89;47.65;97122.63;5445805;26;20498;-71
2024/04/15 02:03:31;;;;;;;1.70;1.60;;;;;;;20.85;47.58;97119.59;5444620;26;20230;-71
2024/04/15 02:05:57;;;;;;;3.07;1.90;;;;;;;20.83;47.62;97108.34;5413770;26;20472;-72
2024/04/15 02:08:22;;;;;;;2.23;1.83;;;;;;;20.79;47.42;97103.69;5444417;26;20541;-72
2024/04/15 02:10:48;;;;;;;6.03;2.23;;;;;;;20.75;46.98;97108.59;5444044;26;20344;-73
2024/04/15 02:13:13;;;;;;;2.80;1.70;;;;;;;20.74;46.94;97103.47;5445361;26;20243;-71
2024/04/15 02:15:40;;;;;;;3.73;1.80;;;;;;;20.70;46.59;97108.44;5444224;26;20278;-72
2024/04/15 02:18:05;;;;;;;3.23;1.90;;;;;;;20.74;46.76;97112.28;5428366;26;20754;-72
2024/04/15 02:20:31;;;;;;;4.20;1.67;;;;;;;20.76;46.31;97114.75;5445317;26;20464;-72
2024/04/15 02:22:56;;;;;;;3.57;1.97;;;;;;;20.77;46.38;97119.84;5408461;26;20290;-72
2024/04/15 02:25:22;;;;;;;2.87;1.70;;;;;;;20.78;45.75;97121.50;5428874;26;20739;-71
2024/04/15 02:27:48;;;;;;;1.63;1.47;;;;;;;20.78;46.23;97118.03;5443123;26;20239;-72
2024/04/15 02:30:13;;;;;;;6.00;1.93;;;;;;;20.77;45.82;97108.41;5444462;26;20736;-74
2024/04/15 02:32:42;;;;;;;2.03;1.60;;;;;;;20.76;45.83;97114.75;5445355;26;20235;-72
2024/04/15 02:35:07;;;;;;;2.20;1.67;;;;;;;20.76;45.45;97114.75;5445270;26;20786;-70
2024/04/15 02:37:33;;;;;;;2.57;1.87;;;;;;;20.75;45.80;97110.47;5445447;26;20460;-71
2024/04/15 02:39:58;;;;;;;5.00;2.00;;;;;;;20.69;45.55;97102.28;5444728;26;20708;-70
2024/04/15 02:42:24;;;;;;;2.13;1.83;;;;;;;20.65;46.10;97095.78;5443943;26;20278;-72
2024/04/15 02:44:49;;;;;;;2.97;1.87;;;;;;;20.71;45.41;97097.56;5445389;26;20247;-71
2024/04/15 02:47:14;;;;;;;2.77;1.70;;;;;;;20.69;45.58;97101.47;5443746;26;20343;-70
2024/04/15 02:49:40;;;;;;;4.47;1.80;;;;;;;20.71;45.68;97094.09;5444487;26;20269;-70
2024/04/15 02:52:05;;;;;;;2.13;1.77;;;;;;;20.77;45.61;97092.44;5443606;26;20257;-70
2024/04/15 02:54:31;;;;;;;5.80;2.27;;;;;;;20.73;45.39;97081.34;5444594;26;20239;-70
2024/04/15 02:56:56;;;;;;;3.20;2.27;;;;;;;20.72;45.33;97075.22;5444377;26;20297;-72
2024/04/15 02:59:22;;;;;;;3.37;1.70;;;;;;;20.72;45.62;97075.22;5443451;26;20278;-71
2024/04/15 03:01:47;;;;;;;2.30;2.00;;;;;;;20.67;46.02;97083.03;5442640;26;20243;-73
2024/04/15 03:04:13;;;;;;;3.10;1.70;;;;;;;20.70;46.46;97081.81;5412876;26;20291;-74
2024/04/15 03:06:38;;;;;;;3.07;1.83;;;;;;;20.74;45.88;97087.50;5442594;26;20367;-73
2024/04/15 03:09:03;;;;;;;1.87;1.60;;;;;;;20.71;45.77;97100.22;5448007;26;20457;-72
2024/04/15 03:11:29;;;;;;;3.50;1.80;;;;;;;20.70;46.12;97077.28;5448146;26;20343;-73
2024/04/15 03:13:54;;;;;;;3.40;1.97;;;;;;;20.65;46.31;97078.97;5448357;26;20717;-72
2024/04/15 03:16:20;;;;;;;4.13;2.13;;;;;;;20.62;45.92;97068.78;5443825;26;20347;-70
2024/04/15 03:18:45;;;;;;;4.07;1.90;;;;;;;20.60;45.07;97073.53;5443921;26;20252;-71
2024/04/15 03:21:11;;;;;;;3.33;1.87;;;;;;;20.60;45.09;97092.16;5446026;26;20240;-71
2024/04/15 03:23:36;;;;;;;4.27;2.00;;;;;;;20.64;45.46;97109.31;5448180;26;20724;-72
2024/04/15 03:26:02;;;;;;;4.00;2.10;;;;;;;20.61;45.63;97091.09;5447780;26;20236;-71
2024/04/15 03:28:28;;;;;;;3.43;2.27;;;;;;;20.57;45.69;97090.72;5441371;26;20352;-76
2024/04/15 03:30:53;;;;;;;2.27;2.00;;;;;;;20.55;45.25;97077.66;5474091;26;20354;-73
2024/04/15 03:33:18;;;;;;;3.80;1.80;;;;;;;20.53;45.69;97069.06;5447802;26;20290;-71
2024/04/15 03:35:44;;;;;;;3.43;1.87;;;;;;;20.45;46.25;97052.56;5447396;26;20610;-71
2024/04/15 03:38:09;;;;;;;2.73;2.30;;;;;;;20.46;46.00;97056.84;5440226;26;20249;-70
2024/04/15 03:40:35;;;;;;;3.53;2.10;;;;;;;20.43;46.25;97052.78;5445087;26;20273;-72
2024/04/15 03:43:02;;;;;;;2.67;2.07;;;;;;;20.44;45.89;97041.13;5448365;26;20732;-74
2024/04/15 03:45:28;;;;;;;5.33;2.37;;;;;;;20.48;45.50;97034.28;5446982;26;20274;-72
2024/04/15 03:47:53;;;;;;;4.47;1.97;;;;;;;20.43;46.13;97039.47;5430931;26;20523;-70
2024/04/15 03:50:20;;;;;;;2.60;2.00;;;;;;;20.41;45.80;97029.03;5447099;26;20287;-71
2024/04/15 03:52:49;;;;;;;3.00;1.87;;;;;;;20.45;45.67;97031.25;5443344;26;20819;-76
2024/04/15 03:55:14;;;;;;;3.03;2.07;;;;;;;20.41;45.84;97031.69;5438662;26;21073;-72
2024/04/15 03:57:40;;;;;;;4.30;2.20;;;;;;;20.39;45.30;97031.13;5446350;26;20571;-71
2024/04/15 04:00:06;;;;;;;8.20;2.00;;;;;;;20.43;44.92;97028.84;5446806;26;20235;-71
2024/04/15 04:02:32;;;;;;;4.53;1.80;;;;;;;20.40;44.71;97013.31;5446374;26;20235;-73
2024/04/15 04:04:57;;;;;;;4.70;1.80;;;;;;;20.37;44.78;97013.72;5445389;26;20498;-74
2024/04/15 04:07:22;;;;;;;3.23;1.93;;;;;;;20.39;44.83;97023.16;5446049;26;20333;-73
2024/04/15 04:09:48;;;;;;;2.83;1.80;;;;;;;20.36;45.59;97034.22;5438928;26;20233;-71
2024/04/15 04:12:13;;;;;;;4.50;2.00;;;;;;;20.36;45.03;97047.53;5445259;26;20235;-74
2024/04/15 04:14:39;;;;;;;2.17;1.67;;;;;;;20.32;44.44;97049.00;5443927;26;20345;-71
2024/04/15 04:17:04;;;;;;;5.10;1.90;;;;;;;20.33;44.64;97055.94;5445697;26;20243;-73
2024/04/15 04:19:31;;;;;;;6.90;1.70;;;;;;;20.36;44.84;97054.69;5439334;26;20235;-72
2024/04/15 04:21:57;;;;;;;3.73;2.10;;;;;;;20.32;45.29;97050.84;5443901;26;20347;-71
2024/04/15 04:24:22;;;;;;;4.73;2.40;;;;;;;20.30;45.26;97051.03;5445524;26;20476;-72
2024/04/15 04:26:48;;;;;;;7.40;2.50;;;;;;;20.22;45.17;97060.16;5446660;26;20240;-71
2024/04/15 04:29:13;;;;;;;8.33;2.00;;;;;;;20.20;45.34;97048.06;5446429;26;20269;-73
2024/04/15 04:31:38;;;;;;;5.13;1.90;;;;;;;20.19;45.50;97047.28;5442843;26;20274;-74
2024/04/15 04:34:04;;;;;;;11.00;2.63;;;;;;;20.24;46.29;97059.91;5446247;26;20289;-71
2024/04/15 04:36:29;;;;;;;9.40;2.50;;;;;;;20.21;45.95;97047.03;5443650;26;20743;-69
2024/04/15 04:38:55;;;;;;;4.30;2.20;;;;;;;20.14;45.97;97047.09;5445774;26;20339;-71
2024/04/15 04:41:21;;;;;;;2.63;2.00;;;;;;;20.09;45.73;97055.72;5431011;26;20671;-71
2024/04/15 04:43:47;;;;;;;4.63;2.10;;;;;;;20.09;45.75;97049.63;5448005;26;20374;-71
2024/04/15 04:46:13;;;;;;;3.77;2.17;;;;;;;20.15;45.82;97050.59;5446054;26;20325;-72
2024/04/15 04:48:39;;;;;;;2.03;1.70;;;;;;;20.15;45.69;97054.03;5444356;26;22025;-72
2024/04/15 04:51:08;;;;;;;2.97;2.30;;;;;;;20.15;46.31;97045.25;5445140;26;20296;-78
2024/04/15 04:53:34;;;;;;;2.60;2.10;;;;;;;20.14;46.03;97048.97;5445203;26;20821;-70
2024/04/15 04:56:07;;;;;;;5.33;2.30;;;;;;;20.12;46.54;97049.16;5444467;26;20557;-70
2024/04/15 04:58:32;;;;;;;2.27;1.87;;;;;;;20.08;46.31;97064.75;5413738;26;20520;-71
2024/04/15 05:01:16;;;;;;;6.03;2.27;;;;;;;20.07;46.71;97073.75;5447060;26;20518;-71
2024/04/15 05:03:45;;;;;;;3.87;2.20;;;;;;;20.09;46.13;97077.00;5444818;26;20251;-72
2024/04/15 05:06:12;;;;;;;2.80;2.17;;;;;;;20.01;46.63;97079.94;5443067;26;20511;-70
2024/04/15 05:08:38;;;;;;;6.57;2.83;;;;;;;20.03;46.53;97072.56;5462684;26;20565;-71
2024/04/15 05:11:04;;;;;;;3.20;2.00;;;;;;;20.04;46.09;97066.19;5455400;26;20512;-70
2024/04/15 05:13:30;;;;;;;3.30;2.50;;;;;;;20.12;45.99;97080.28;5445095;26;20528;-71
2024/04/15 05:16:06;;;;;;;2.93;2.10;;;;;;;20.06;46.76;97069.47;5442715;26;20453;-70
2024/04/15 05:18:32;;;;;;;7.57;2.60;;;;;;;20.03;46.59;97077.06;5438142;26;20239;-72
2024/04/15 05:21:01;;;;;;;2.97;1.80;;;;;;;20.01;46.52;97071.97;5440117;26;20542;-71
2024/04/15 05:23:27;;;;;;;2.70;1.60;;;;;;;20.05;47.30;97080.31;5436205;26;20520;-72
2024/04/15 05:25:58;;;;;;;3.63;1.83;;;;;;;19.99;47.18;97071.38;5405851;26;21052;-72
2024/04/15 05:28:23;;;;;;;4.07;2.00;;;;;;;19.99;46.52;97076.69;5434476;26;20536;-72
2024/04/15 05:30:52;;;;;;;2.80;1.80;;;;;;;20.00;47.06;97078.31;5444079;26;20504;-72
2024/04/15 05:33:18;;;;;;;3.20;1.60;;;;;;;19.92;47.43;97091.84;5436259;26;20642;-71
2024/04/15 05:35:43;;;;;;;3.77;1.90;;;;;;;19.94;47.29;97095.94;5429425;26;20464;-73
2024/04/15 05:38:09;;;;;;;4.67;1.90;;;;;;;19.85;47.50;97089.22;5427629;26;20358;-71
2024/04/15 05:40:35;;;;;;;2.30;1.83;;;;;;;19.85;48.14;97080.44;5431654;26;20259;-71
2024/04/15 05:43:00;;;;;;;4.53;1.70;;;;;;;19.83;48.26;97083.31;5433847;26;20227;-70
2024/04/15 05:45:26;;;;;;;2.20;2.00;;;;;;;19.79;48.78;97079.44;5441995;26;20235;-72
2024/04/15 05:47:51;;;;;;;3.50;2.40;;;;;;;19.76;48.52;97083.34;5436326;26;20240;-71
2024/04/15 05:50:16;;;;;;;2.67;1.67;;;;;;;19.71;48.40;97087.69;5441177;26;20277;-72
2024/04/15 05:52:42;;;;;;;5.50;1.77;;;;;;;19.70;47.97;97083.41;5427891;26;20616;-72
2024/04/15 05:55:08;;;;;;;4.03;1.57;;;;;;;19.65;47.26;97081.38;5443504;26;20355;-71
2024/04/15 05:57:33;;;;;;;2.33;1.80;;;;;;;19.57;47.29;97079.78;5431759;26;20943;-70
2024/04/15 05:59:58;;;;;;;2.50;1.70;;;;;;;19.60;47.25;97079.34;5473639;26;20329;-72
2024/04/15 06:02:24;;;;;;;2.93;1.90;;;;;;;19.51;47.20;97079.81;5443512;26;20243;-71
2024/04/15 06:04:50;;;;;;;2.03;1.83;;;;;;;19.59;47.10;97071.59;5443001;26;20339;-75
2024/04/15 06:07:16;;;;;;;4.70;1.80;;;;;;;19.63;46.91;97064.81;5443737;26;20231;-70
2024/04/15 06:09:42;;;;;;;2.03;1.40;;;;;;;19.64;46.81;97074.44;5439719;26;20461;-71
2024/04/15 06:12:08;;;;;;;4.90;1.80;;;;;;;19.63;46.48;97076.25;5428537;26;20510;-70
2024/04/15 06:14:33;;;;;;;2.63;1.30;;;;;;;19.62;45.51;97074.63;5435467;26;20243;-71
2024/04/15 06:17:00;;;;;;;7.30;1.60;;;;;;;19.62;45.59;97079.94;5441931;26;20239;-72
2024/04/15 06:19:26;;;;;;;5.10;1.63;;;;;;;19.63;45.63;97086.88;5444099;26;20771;-71
2024/04/15 06:21:52;;;;;;;3.30;1.47;;;;;;;19.61;45.47;97085.47;5438654;26;20452;-72
2024/04/15 06:24:18;;;;;;;3.03;1.50;;;;;;;19.57;44.56;97084.28;5421899;26;20728;-70
2024/04/15 06:26:46;;;;;;;2.60;1.60;;;;;;;19.53;45.16;97099.03;5472301;26;20343;-73
2024/04/15 06:29:11;;;;;;;7.10;1.87;;;;;;;19.49;45.39;97088.81;5430133;26;20555;-69
2024/04/15 06:31:37;;;;;;;4.60;2.00;;;;;;;19.48;45.25;97091.66;5440665;26;20568;-70
2024/04/15 06:34:02;;;;;;;5.03;2.10;;;;;;;19.43;45.43;97083.53;5432008;26;20239;-69
2024/04/15 06:36:28;;;;;;;3.63;2.23;;;;;;;19.44;45.51;97085.97;5433290;26;21023;-70
2024/04/15 06:38:53;;;;;;;3.27;2.20;;;;;;;19.45;45.54;97087.59;5437516;26;20242;-73
2024/04/15 06:41:19;;;;;;;3.43;1.80;;;;;;;19.36;45.33;97078.25;5428015;26;20240;-72
2024/04/15 06:43:44;;;;;;;4.53;1.80;;;;;;;19.40;45.61;97068.84;5443462;26;20231;-74
2024/04/15 06:46:10;;;;;;;2.70;1.60;;;;;;;19.43;45.56;97083.53;5441778;26;20298;-71
2024/04/15 06:48:36;;;;;;;4.67;2.30;;;;;;;19.42;45.84;97082.69;5446601;26;20274;-74
2024/04/15 06:51:02;;;;;;;3.23;1.40;;;;;;;19.41;45.32;97091.69;5448221;26;20282;-70
2024/04/15 06:53:28;;;;;;;3.63;1.60;;;;;;;19.44;45.92;97093.13;5416556;26;20453;-71
2024/04/15 06:55:53;;;;;;;3.23;1.90;;;;;;;19.45;45.57;97084.94;5445579;26;20239;-73
2024/04/15 06:58:19;;;;;;;3.03;1.50;;;;;;;19.44;45.71;97085.16;5445965;26;20846;-72
2024/04/15 07:00:45;;;;;;;2.40;1.53;;;;;;;19.43;45.87;97073.72;5448045;26;20740;-70
2024/04/15 07:03:10;;;;;;;4.47;2.07;;;;;;;19.45;46.11;97079.63;5446366;26;20286;-70
2024/04/15 07:05:36;;;;;;;5.73;1.80;;;;;;;19.40;45.83;97075.97;5445326;26;20243;-76
2024/04/15 07:08:01;;;;;;;1.83;1.70;;;;;;;19.43;46.11;97078.22;5416064;26;20235;-70
2024/04/15 07:10:27;;;;;;;8.20;3.43;;;;;;;19.44;46.04;97080.66;5443482;26;21067;-70
2024/04/15 07:12:52;;;;;;;7.50;1.97;;;;;;;19.40;45.70;97089.25;5446269;26;20831;-71
2024/04/15 07:15:18;;;;;;;4.03;2.80;;;;;;;19.42;46.19;97093.34;5412564;26;20888;-70
2024/04/15 07:17:43;;;;;;;5.37;3.03;;;;;;;19.43;45.94;97089.66;5441952;26;20310;-73
2024/04/15 07:20:09;;;;;;;12.73;3.00;;;;;;;19.45;46.30;97087.59;5445860;26;20761;-74
2024/04/15 07:22:34;;;;;;;6.30;2.90;;;;;;;19.49;46.21;97083.50;5434438;26;20271;-71
2024/04/15 07:25:02;;;;;;;8.80;2.73;;;;;;;19.48;46.25;97087.19;5446290;26;20231;-72
2024/04/15 07:27:32;;;;;;;2.70;1.80;;;;;;;19.51;46.29;97090.44;5433317;26;20233;-70
2024/04/15 07:29:57;;;;;;;5.53;2.30;;;;;;;19.54;45.99;97097.97;5441713;26;21036;-71
2024/04/15 07:32:22;;;;;;;4.10;2.23;;;;;;;19.49;46.09;97096.78;5442964;26;20453;-72
2024/04/15 07:34:48;;;;;;;7.77;2.67;;;;;;;19.51;46.37;97085.13;5439124;26;20282;-71
2024/04/15 07:37:16;;;;;;;3.80;1.97;;;;;;;19.62;46.32;97084.47;5443621;26;20856;-70
2024/04/15 07:39:42;;;;;;;4.53;2.60;;;;;;;19.69;46.16;97093.19;5371067;26;20772;-73
2024/04/15 07:42:07;;;;;;;7.23;2.40;;;;;;;19.72;46.15;97076.81;5444746;26;20453;-72
2024/04/15 07:44:33;;;;;;;4.53;2.40;;;;;;;19.76;46.03;97083.34;5436557;26;20316;-73
2024/04/15 07:46:58;;;;;;;6.67;2.60;;;;;;;19.79;45.75;97077.59;5445620;26;20627;-71
2024/04/15 07:49:24;;;;;;;7.03;2.20;;;;;;;19.88;45.20;97069.41;5445314;26;20344;-73
2024/04/15 07:51:49;;;;;;;4.17;2.17;;;;;;;19.89;45.22;97061.19;5447581;26;20740;-73
2024/04/15 07:54:15;;;;;;;6.07;3.70;;;;;;;19.92;45.18;97057.28;5446180;26;20239;-70
2024/04/15 07:56:40;;;;;;;6.07;3.17;;;;;;;19.88;44.87;97069.41;5392151;26;20248;-71
2024/04/15 07:59:06;;;;;;;4.57;2.90;;;;;;;19.80;44.74;97065.13;5445567;26;20239;-74
2024/04/15 08:01:32;;;;;;;5.70;2.80;;;;;;;19.70;44.24;97070.91;5448015;26;20779;-73
2024/04/15 08:03:57;;;;;;;5.53;3.30;;;;;;;19.65;44.90;97065.44;5439616;26;20473;-72
2024/04/15 08:06:23;;;;;;;8.20;3.13;;;;;;;19.67;45.29;97057.22;5447773;26;20238;-71
2024/04/15 08:08:50;;;;;;;8.73;4.20;;;;;;;19.60;45.60;97060.72;5444664;26;20285;-72
2024/04/15 08:11:15;;;;;;;10.63;3.47;;;;;;;19.63;45.92;97056.84;5445926;26;20344;-70
2024/04/15 08:13:40;;;;;;;11.50;7.77;;;;;;;19.69;46.44;97061.31;5444284;26;20472;-73
2024/04/15 08:16:06;;;;;;;5.83;3.83;;;;;;;19.75;46.34;97060.47;5441693;26;20247;-70
2024/04/15 08:18:32;;;;;;;7.80;3.80;;;;;;;19.76;46.52;97051.44;5438826;26;20248;-72
2024/04/15 08:20:57;;;;;;;7.50;3.50;;;;;;;19.74;46.57;97055.34;5438958;26;20232;-70
2024/04/15 08:23:23;;;;;;;5.93;3.53;;;;;;;19.80;47.19;97046.50;5430617;26;20343;-73
2024/04/15 08:25:52;;;;;;;5.50;4.10;;;;;;;19.90;47.25;97046.88;5443199;26;20315;-71
2024/04/15 08:28:18;;;;;;;10.40;7.80;;;;;;;20.00;47.69;97046.41;5425662;26;20578;-71
2024/04/15 08:30:43;;;;;;;12.80;6.77;;;;;;;20.00;46.78;97035.75;5444638;26;20500;-71
2024/04/15 08:33:09;;;;;;;10.60;6.93;;;;;;;20.02;46.82;97036.38;5437845;26;20282;-72
2024/04/15 08:35:34;;;;;;;10.30;5.50;;;;;;;19.99;46.72;97023.50;5436208;26;20243;-72
2024/04/15 08:38:00;;;;;;;9.23;3.00;;;;;;;19.91;47.26;97026.44;5403592;26;20232;-75
2024/04/15 08:40:25;;;;;;;9.40;6.70;;;;;;;19.92;47.77;97018.22;5436107;26;20243;-72
2024/04/15 08:42:53;;;;;;;9.60;4.47;;;;;;;19.99;46.27;97015.50;5444380;26;20243;-74
2024/04/15 08:45:20;;;;;;;8.80;6.37;;;;;;;20.05;47.56;97022.59;5456616;26;20300;-71
2024/04/15 08:47:50;;;;;;;6.50;4.90;;;;;;;20.07;47.97;97012.56;5445294;26;20534;-70
2024/04/15 08:50:15;;;;;;;8.17;4.60;;;;;;;20.11;47.48;97010.28;5436662;26;20464;-72
2024/04/15 08:52:42;;;;;;;11.43;6.47;;;;;;;20.15;47.13;96989.41;5447560;26;20978;-73
2024/04/15 08:55:08;;;;;;;16.90;12.90;;;;;;;20.18;46.66;96980.97;5446027;26;20240;-72
2024/04/15 08:57:34;;;;;;;12.07;9.43;;;;;;;20.25;47.53;96987.84;5446990;26;21404;-72
2024/04/15 09:00:00;;;;;;;11.40;5.03;;;;;;;20.26;47.35;96991.34;5445225;26;20456;-72
2024/04/15 09:02:28;;;;;;;6.70;2.50;;;;;;;20.24;46.89;96988.88;5415391;26;20624;-71
2024/04/15 09:04:55;;;;;;;12.00;8.60;;;;;;;20.29;47.01;96990.06;5439751;26;20506;-71
2024/04/15 09:07:20;;;;;;;3.57;2.60;;;;;;;20.39;47.20;96993.88;5429096;26;20522;-70
2024/04/15 09:09:46;;;;;;;4.40;2.23;;;;;;;20.56;46.22;96990.59;5436927;26;21024;-73
2024/04/15 09:12:11;;;;;;;4.60;2.43;;;;;;;20.65;47.29;96986.63;5444929;26;20804;-74
2024/04/15 09:14:37;;;;;;;3.37;2.40;;;;;;;20.65;45.89;96983.97;5440382;26;20343;-72
2024/04/15 09:17:02;;;;;;;9.70;2.50;;;;;;;20.74;46.35;96981.00;5439162;26;20231;-72
2024/04/15 09:19:29;;;;;;;6.70;2.80;;;;;;;20.95;46.19;96971.78;5442043;26;20274;-71
2024/04/15 09:22:00;;;;;;;6.80;2.73;;;;;;;21.16;45.69;96968.59;5428929;26;20295;-72
2024/04/15 09:24:26;;;;;;;4.47;2.33;;;;;;;21.31;44.99;96975.38;5429640;26;20529;-73
2024/04/15 09:26:51;;;;;;;4.47;2.40;;;;;;;21.55;44.74;96986.91;5434723;26;20461;-72
2024/04/15 09:29:18;;;;;;;4.93;2.17;;;;;;;21.80;44.45;96977.94;5431571;26;20278;-71
2024/04/15 09:31:43;;;;;;;5.13;2.20;;;;;;;21.92;42.69;96976.13;5432322;26;20244;-72
2024/04/15 09:34:09;;;;;;;5.93;2.40;;;;;;;21.98;42.59;96976.22;5438191;26;20873;-72
2024/04/15 09:36:45;;;;;;;6.47;2.33;;;;;;;21.99;42.35;96969.84;5441712;26;20290;-71
2024/04/15 09:39:12;;;;;;;3.37;1.87;;;;;;;21.90;42.55;96972.03;5410753;26;20628;-72
2024/04/15 09:41:38;;;;;;;8.17;2.30;;;;;;;21.98;42.07;96962.88;5445877;26;20964;-72
2024/04/15 09:44:03;;;;;;;8.37;2.37;;;;;;;22.04;42.00;96961.97;5437991;26;20460;-71
2024/04/15 09:46:32;;;;;;;3.57;2.00;;;;;;;22.04;42.10;96967.31;5427221;26;20278;-71
2024/04/15 09:49:01;;;;;;;5.33;2.00;;;;;;;21.95;41.17;96964.19;5440463;26;20336;-71
2024/04/15 09:51:31;;;;;;;4.07;2.03;;;;;;;21.50;41.03;96968.13;5429868;26;20576;-72
2024/04/15 09:53:59;;;;;;;2.17;1.73;;;;;;;21.52;42.11;96966.06;5432922;26;20469;-73
2024/04/15 09:56:26;;;;;;;5.00;2.83;;;;;;;21.46;42.20;96967.78;5438648;26;20452;-73
2024/04/15 09:58:56;;;;;;;6.03;3.40;;;;;;;21.53;42.30;96957.03;5437792;26;20460;-72
2024/04/15 10:01:28;;;;;;;8.97;2.30;;;;;;;21.58;42.38;96951.00;5444082;26;20513;-72
2024/04/15 10:03:54;;;;;;;4.73;2.03;;;;;;;21.61;42.31;96946.03;5432462;26;20502;-71
2024/04/15 10:06:27;;;;;;;5.67;1.97;;;;;;;21.58;41.74;96948.34;5443358;26;21088;-72
2024/04/15 10:08:53;;;;;;;2.80;1.97;;;;;;;21.43;41.66;96940.75;5412616;26;20509;-72
2024/04/15 10:11:19;;;;;;;5.60;1.93;;;;;;;21.59;41.76;96934.78;5437392;26;20480;-72
2024/04/15 10:13:45;;;;;;;2.97;2.13;;;;;;;21.79;41.94;96923.00;5436939;26;20516;-72
2024/04/15 10:16:18;;;;;;;6.63;2.23;;;;;;;22.14;41.72;96918.69;5438686;26;20453;-72
2024/04/15 10:18:51;;;;;;;6.63;2.10;;;;;;;22.35;40.46;96895.91;5437723;26;20235;-72
2024/04/15 10:21:17;;;;;;;4.03;2.07;;;;;;;22.19;40.12;96903.59;5434900;26;20452;-71
2024/04/15 10:23:46;;;;;;;3.60;1.90;;;;;;;22.00;40.45;96899.44;5413127;26;20495;-72
2024/04/15 10:26:11;;;;;;;5.37;2.03;;;;;;;21.86;40.60;96885.56;5433882;26;20703;-71
2024/04/15 10:28:37;;;;;;;3.73;1.90;;;;;;;22.00;40.76;96891.44;5443925;26;20790;-71
2024/04/15 10:31:03;;;;;;;4.50;2.10;;;;;;;22.04;41.09;96885.41;5432640;26;20293;-71
2024/04/15 10:33:28;;;;;;;3.07;1.80;;;;;;;21.93;41.21;96897.69;5432552;26;20244;-71
2024/04/15 10:35:54;;;;;;;7.87;2.60;;;;;;;21.83;41.44;96892.16;5434964;26;20267;-72
2024/04/15 10:38:19;;;;;;;4.47;2.60;;;;;;;21.73;41.78;96887.41;5437250;26;20592;-71
2024/04/15 10:40:48;;;;;;;4.03;1.87;;;;;;;21.60;41.43;96893.75;5441613;26;20242;-72
2024/04/15 10:43:18;;;;;;;4.67;2.03;;;;;;;21.47;41.38;96893.94;5442487;26;20281;-72
2024/04/15 10:45:47;;;;;;;2.30;1.67;;;;;;;21.45;41.30;96888.03;5435428;26;20588;-71
2024/04/15 10:48:13;;;;;;;3.60;2.07;;;;;;;21.38;42.10;96880.13;5436895;26;20464;-72
2024/04/15 10:50:39;;;;;;;3.20;1.90;;;;;;;21.30;41.94;96878.63;5444159;26;20449;-72
2024/04/15 10:53:05;;;;;;;2.60;2.10;;;;;;;21.26;41.92;96871.31;5382252;26;20239;-72
2024/04/15 10:55:30;;;;;;;2.90;1.70;;;;;;;21.16;42.11;96870.03;5444661;26;20863;-71
2024/04/15 10:57:56;;;;;;;2.70;1.80;;;;;;;21.20;42.45;96881.03;5431060;26;20291;-74
2024/04/15 11:00:23;;;;;;;5.60;1.77;;;;;;;21.18;42.71;96872.44;5424017;26;20817;-71
2024/04/15 11:02:50;;;;;;;6.17;2.40;;;;;;;21.15;42.61;96864.94;5443316;26;20339;-71
2024/04/15 11:05:16;;;;;;;3.40;2.10;;;;;;;21.11;42.97;96859.22;5430581;26;20468;-71
2024/04/15 11:07:42;;;;;;;4.30;2.80;;;;;;;21.12;43.40;96849.41;5429944;26;20452;-71
2024/04/15 11:10:09;;;;;;;3.00;2.10;;;;;;;21.13;43.48;96848.38;5435548;26;20513;-71
2024/04/15 11:12:35;;;;;;;4.83;2.63;;;;;;;21.23;43.61;96835.28;5443093;26;20275;-71
2024/04/15 11:15:01;;;;;;;5.33;2.40;;;;;;;21.28;43.62;96811.44;5440517;26;21103;-70
2024/04/15 11:17:26;;;;;;;2.20;1.90;;;;;;;21.33;43.37;96806.22;5439613;26;20513;-71
2024/04/15 11:20:04;;;;;;;5.83;1.70;;;;;;;21.38;43.07;96799.38;5435100;26;20232;-73
2024/04/15 11:22:30;;;;;;;2.17;1.43;;;;;;;21.42;43.22;96792.56;5428903;26;20282;-72
2024/04/15 11:24:55;;;;;;;6.97;1.70;;;;;;;21.36;42.49;96790.81;5436406;26;20449;-72
2024/04/15 11:27:22;;;;;;;4.97;1.63;;;;;;;21.35;41.37;96790.00;5430820;26;20290;-71
2024/04/15 11:29:47;;;;;;;7.03;2.13;;;;;;;21.25;41.47;96787.09;5416838;26;20243;-71